createdAt,value
2023-07-21T00:00:24.656Z,7.90
2023-07-21T00:02:53.548Z,7.47
2023-07-21T00:05:20.775Z,9.70
2023-07-21T00:07:49.414Z,9.60
2023-07-21T00:10:16.595Z,8.73
2023-07-21T00:12:44.323Z,8.63
2023-07-21T00:15:11.613Z,9.20
2023-07-21T00:17:38.747Z,9.50
2023-07-21T00:20:10.536Z,9.80
2023-07-21T00:22:37.699Z,10.40
2023-07-21T00:25:06.776Z,11.20
2023-07-21T00:27:33.918Z,11.70
2023-07-21T00:30:01.089Z,10.00
2023-07-21T00:32:28.246Z,10.27
2023-07-21T00:34:55.444Z,10.20
2023-07-21T00:37:22.596Z,10.57
2023-07-21T00:39:49.667Z,11.30
2023-07-21T00:42:18.098Z,11.60
2023-07-21T00:44:45.199Z,11.40
2023-07-21T00:47:12.442Z,11.10
2023-07-21T00:49:39.625Z,9.30
2023-07-21T00:52:07.130Z,11.70
2023-07-21T00:54:34.284Z,9.70
2023-07-21T00:57:01.474Z,10.27
2023-07-21T00:59:30.090Z,11.10
2023-07-21T01:01:57.202Z,10.57
2023-07-21T01:04:24.568Z,11.03
2023-07-21T01:06:52.390Z,12.67
2023-07-21T01:09:20.460Z,12.60
2023-07-21T01:11:47.776Z,12.17
2023-07-21T01:14:14.982Z,12.57
2023-07-21T01:16:43.850Z,10.70
2023-07-21T01:19:13.739Z,10.30
2023-07-21T01:21:43.211Z,10.20
2023-07-21T01:24:14.075Z,11.03
2023-07-21T01:26:43.242Z,10.47
2023-07-21T01:29:11.092Z,11.50
2023-07-21T01:31:39.140Z,10.00
2023-07-21T01:34:07.149Z,9.60
2023-07-21T01:36:34.577Z,10.20
2023-07-21T01:39:02.197Z,9.93
2023-07-21T01:41:29.709Z,9.73
2023-07-21T01:43:58.183Z,9.50
2023-07-21T01:46:25.585Z,10.77
2023-07-21T01:48:52.868Z,9.10
2023-07-21T01:51:21.151Z,9.97
2023-07-21T01:53:50.161Z,8.93
2023-07-21T01:56:26.497Z,10.83
2023-07-21T01:58:54.358Z,10.27
2023-07-21T02:01:23.812Z,9.37
2023-07-21T02:03:51.037Z,10.07
2023-07-21T02:06:18.576Z,9.70
2023-07-21T02:08:45.740Z,10.37
2023-07-21T02:11:13.044Z,9.37
2023-07-21T02:14:06.129Z,9.23
2023-07-21T02:16:34.687Z,9.30
2023-07-21T02:19:01.827Z,8.70
2023-07-21T02:21:29.541Z,8.73
2023-07-21T02:23:56.679Z,8.70
2023-07-21T02:26:24.286Z,7.93
2023-07-21T02:28:52.360Z,8.93
2023-07-21T02:31:20.027Z,9.43
2023-07-21T02:33:48.727Z,7.80
2023-07-21T02:36:16.507Z,8.23
2023-07-21T02:38:43.592Z,8.37
2023-07-21T02:41:10.685Z,9.10
2023-07-21T02:43:37.853Z,9.17
2023-07-21T02:46:05.304Z,9.93
2023-07-21T02:48:33.585Z,10.10
2023-07-21T02:51:02.830Z,9.83
2023-07-21T02:53:35.972Z,9.80
2023-07-21T02:56:03.823Z,10.43
2023-07-21T02:58:32.890Z,9.53
2023-07-21T03:01:00.391Z,10.43
2023-07-21T03:03:34.977Z,10.30
2023-07-21T03:06:11.046Z,9.53
2023-07-21T03:08:38.583Z,10.37
2023-07-21T03:11:08.860Z,10.83
2023-07-21T03:13:42.259Z,11.93
2023-07-21T03:16:09.643Z,10.77
2023-07-21T03:18:38.713Z,11.93
2023-07-21T03:21:13.743Z,10.13
2023-07-21T03:23:40.925Z,10.30
2023-07-21T03:26:08.360Z,12.50
2023-07-21T03:28:41.016Z,11.73
2023-07-21T03:31:08.231Z,12.30
2023-07-21T03:33:42.587Z,12.77
2023-07-21T03:36:16.906Z,13.13
2023-07-21T03:38:44.064Z,13.30
2023-07-21T03:41:11.330Z,15.27
2023-07-21T03:43:39.321Z,12.90
2023-07-21T03:46:07.762Z,15.40
2023-07-21T03:48:55.257Z,14.83
2023-07-21T03:51:23.806Z,16.00
2023-07-21T03:53:50.935Z,16.30
2023-07-21T03:56:21.214Z,18.33
2023-07-21T03:58:48.343Z,17.33
2023-07-21T04:01:15.445Z,17.63
2023-07-21T04:03:42.935Z,19.47
2023-07-21T04:06:10.139Z,16.03
2023-07-21T04:08:38.777Z,15.80
2023-07-21T04:11:05.985Z,18.27
2023-07-21T04:13:33.110Z,17.20
2023-07-21T04:16:00.271Z,17.10
2023-07-21T04:18:27.472Z,17.60
2023-07-21T04:20:55.157Z,15.23
2023-07-21T04:23:22.329Z,16.10
2023-07-21T04:25:51.552Z,16.27
2023-07-21T04:28:19.216Z,16.30
2023-07-21T04:30:46.430Z,16.10
2023-07-21T04:33:13.538Z,15.30
2023-07-21T04:35:44.615Z,16.30
2023-07-21T04:38:13.075Z,17.03
2023-07-21T04:40:46.442Z,14.90
2023-07-21T04:43:15.182Z,15.73
2023-07-21T04:45:42.947Z,15.07
2023-07-21T04:48:15.403Z,15.03
2023-07-21T04:50:44.746Z,15.80
2023-07-21T04:53:12.000Z,14.77
2023-07-21T04:55:39.212Z,15.60
2023-07-21T04:58:08.247Z,14.57
2023-07-21T05:00:36.831Z,16.03
2023-07-21T05:03:04.203Z,14.97
2023-07-21T05:05:33.885Z,16.00
2023-07-21T05:08:01.094Z,15.13
2023-07-21T05:10:28.650Z,15.20
2023-07-21T05:12:56.131Z,16.67
2023-07-21T05:15:36.996Z,13.97
2023-07-21T05:18:22.963Z,16.37
2023-07-21T05:21:05.065Z,15.23
2023-07-21T05:23:45.777Z,16.87
2023-07-21T05:26:16.154Z,15.70
2023-07-21T05:28:43.463Z,14.27
2023-07-21T05:31:12.701Z,16.60
2023-07-21T05:33:51.399Z,15.27
2023-07-21T05:36:18.517Z,15.77
2023-07-21T05:38:45.844Z,14.73
2023-07-21T05:41:13.548Z,16.57
2023-07-21T05:43:40.618Z,16.43
2023-07-21T05:46:08.044Z,15.70
2023-07-21T05:48:40.258Z,15.20
2023-07-21T05:51:12.626Z,16.70
2023-07-21T05:53:39.802Z,18.37
2023-07-21T05:56:15.397Z,18.10
2023-07-21T05:58:52.631Z,20.93
2023-07-21T06:01:19.764Z,20.30
2023-07-21T06:03:48.512Z,20.90
2023-07-21T06:06:15.846Z,19.47
2023-07-21T06:09:08.624Z,16.90
2023-07-21T06:11:58.809Z,17.87
2023-07-21T06:14:33.964Z,18.57
2023-07-21T06:17:12.463Z,16.80
2023-07-21T06:19:41.072Z,17.60
2023-07-21T06:22:08.767Z,18.00
2023-07-21T06:24:36.486Z,17.53
2023-07-21T06:27:03.569Z,19.13
2023-07-21T06:29:30.896Z,18.03
2023-07-21T06:31:58.924Z,20.20
2023-07-21T06:34:37.702Z,17.77
2023-07-21T06:37:19.415Z,16.43
2023-07-21T06:40:10.156Z,18.50
2023-07-21T06:43:15.696Z,18.97
2023-07-21T06:46:12.420Z,20.20
2023-07-21T06:48:48.320Z,18.40
2023-07-21T06:51:32.746Z,18.93
2023-07-21T06:54:01.423Z,17.17
2023-07-21T06:56:28.832Z,16.37
2023-07-21T06:58:55.960Z,17.57
2023-07-21T07:01:23.354Z,15.70
2023-07-21T07:03:52.818Z,16.60
2023-07-21T07:06:20.281Z,16.30
2023-07-21T07:08:47.391Z,14.10
2023-07-21T07:11:17.229Z,14.33
2023-07-21T07:13:44.334Z,13.30
2023-07-21T07:16:11.702Z,12.63
2023-07-21T07:18:38.810Z,13.37
2023-07-21T07:21:05.917Z,13.30
2023-07-21T07:23:33.183Z,14.53
2023-07-21T07:26:01.372Z,14.27
2023-07-21T07:28:29.861Z,13.37
2023-07-21T07:30:56.922Z,14.30
2023-07-21T07:33:24.248Z,14.10
2023-07-21T07:35:54.065Z,14.70
2023-07-21T07:38:23.181Z,14.30
2023-07-21T07:40:50.252Z,12.83
2023-07-21T07:43:17.383Z,14.23
2023-07-21T07:45:45.843Z,14.63
2023-07-21T07:48:13.024Z,13.17
2023-07-21T07:50:40.204Z,13.80
2023-07-21T07:53:07.395Z,11.50
2023-07-21T07:55:37.817Z,10.30
2023-07-21T07:58:04.940Z,9.67
2023-07-21T08:00:32.046Z,11.07
2023-07-21T08:03:00.636Z,10.40
2023-07-21T08:05:28.018Z,9.70
2023-07-21T08:07:55.070Z,10.20
2023-07-21T08:10:22.129Z,9.30
2023-07-21T08:12:49.244Z,8.77
2023-07-21T08:15:16.347Z,8.97
2023-07-21T08:17:43.514Z,8.30
2023-07-21T08:20:12.757Z,8.93
2023-07-21T08:22:40.033Z,8.93
2023-07-21T08:25:07.789Z,7.00
2023-07-21T08:27:34.946Z,5.73
2023-07-21T08:30:02.075Z,8.00
2023-07-21T08:32:29.307Z,6.50
2023-07-21T08:34:56.479Z,8.10
2023-07-21T08:37:24.986Z,6.30
2023-07-21T08:39:52.059Z,7.07
2023-07-21T08:42:19.196Z,9.33
2023-07-21T08:44:46.385Z,8.27
2023-07-21T08:47:13.521Z,8.03
2023-07-21T08:49:40.617Z,9.87
2023-07-21T08:52:07.837Z,9.33
2023-07-21T08:54:36.311Z,9.00
2023-07-21T08:57:03.960Z,9.17
2023-07-21T08:59:31.045Z,9.17
2023-07-21T09:01:58.146Z,8.43
2023-07-21T09:04:25.869Z,9.47
2023-07-21T09:06:53.543Z,9.23
2023-07-21T09:09:20.890Z,7.87
2023-07-21T09:11:49.531Z,9.37
2023-07-21T09:14:17.040Z,9.00
2023-07-21T09:16:44.786Z,9.17
2023-07-21T09:19:11.920Z,8.90
2023-07-21T09:21:39.157Z,9.23
2023-07-21T09:24:07.371Z,7.47
2023-07-21T09:26:34.583Z,8.37
2023-07-21T09:29:02.997Z,7.80
2023-07-21T09:31:30.838Z,7.90
2023-07-21T09:34:05.986Z,7.70
2023-07-21T09:36:33.404Z,6.80
2023-07-21T09:39:02.118Z,7.03
2023-07-21T09:41:31.956Z,6.60
2023-07-21T09:43:59.445Z,5.87
2023-07-21T09:46:27.929Z,5.60
2023-07-21T09:48:55.089Z,6.03
2023-07-21T09:51:22.258Z,6.53
2023-07-21T09:53:50.906Z,6.07
2023-07-21T09:56:20.382Z,6.90
2023-07-21T09:58:48.207Z,6.10
2023-07-21T10:01:16.622Z,7.30
2023-07-21T10:03:46.074Z,5.70
2023-07-21T10:06:13.590Z,6.70
2023-07-21T10:08:40.934Z,6.40
2023-07-21T10:11:08.707Z,6.40
2023-07-21T10:13:41.101Z,6.33
2023-07-21T10:16:09.161Z,5.73
2023-07-21T10:18:37.076Z,6.33
2023-07-21T10:21:05.594Z,6.03
2023-07-21T10:23:33.163Z,6.17
2023-07-21T10:26:01.620Z,5.20
2023-07-21T10:28:39.290Z,5.40
2023-07-21T10:31:25.921Z,5.43
2023-07-21T10:34:02.467Z,4.63
2023-07-21T10:36:40.229Z,4.30
2023-07-21T10:39:08.534Z,4.87
2023-07-21T10:41:36.130Z,4.83
2023-07-21T10:44:03.201Z,4.20
2023-07-21T10:46:35.870Z,4.03
2023-07-21T10:49:03.171Z,4.27
2023-07-21T10:51:30.288Z,3.37
2023-07-21T10:53:58.834Z,3.40
2023-07-21T10:56:25.932Z,4.67
2023-07-21T10:58:53.288Z,3.60
2023-07-21T11:01:21.086Z,4.03
2023-07-21T11:03:48.535Z,3.57
2023-07-21T11:06:15.720Z,4.37
2023-07-21T11:08:42.805Z,3.70
2023-07-21T11:11:11.611Z,3.60
2023-07-21T11:13:39.244Z,3.60
2023-07-21T11:16:06.388Z,3.03
2023-07-21T11:18:33.819Z,3.63
2023-07-21T11:21:00.927Z,3.47
2023-07-21T11:23:28.222Z,3.37
2023-07-21T11:26:02.657Z,5.40
2023-07-21T11:28:31.311Z,3.70
2023-07-21T11:30:58.572Z,3.40
2023-07-21T11:33:25.735Z,2.93
2023-07-21T11:35:52.910Z,3.07
2023-07-21T11:38:20.037Z,2.80
2023-07-21T11:40:47.632Z,3.67
2023-07-21T11:43:14.788Z,3.33
2023-07-21T11:45:43.603Z,3.00
2023-07-21T11:48:15.401Z,2.93
2023-07-21T11:50:49.954Z,2.70
2023-07-21T11:53:17.088Z,2.67
2023-07-21T11:55:44.573Z,2.80
2023-07-21T11:58:12.059Z,3.20
2023-07-21T12:00:39.713Z,2.90
2023-07-21T12:03:08.390Z,2.43
2023-07-21T12:05:35.658Z,2.37
2023-07-21T12:08:03.033Z,2.90
2023-07-21T12:10:30.111Z,2.20
2023-07-21T12:12:57.172Z,3.08
2023-07-21T12:15:24.249Z,2.53
2023-07-21T12:17:51.403Z,3.13
2023-07-21T12:20:19.945Z,3.40
2023-07-21T12:22:47.024Z,2.73
2023-07-21T12:25:14.224Z,2.30
2023-07-21T12:27:41.383Z,2.45
2023-07-21T12:30:09.374Z,2.53
2023-07-21T12:32:36.946Z,2.05
2023-07-21T12:35:04.588Z,2.25
2023-07-21T12:37:33.083Z,2.50
2023-07-21T12:40:00.151Z,2.63
2023-07-21T12:42:27.427Z,2.78
2023-07-21T12:44:54.514Z,2.25
2023-07-21T12:47:21.578Z,2.30
2023-07-21T12:49:48.684Z,2.42
2023-07-21T12:52:15.772Z,2.28
2023-07-21T12:54:46.007Z,2.15
2023-07-21T12:57:14.103Z,2.33
2023-07-21T12:59:41.272Z,2.40
2023-07-21T13:02:08.617Z,1.90
2023-07-21T13:04:36.081Z,2.07
2023-07-21T13:07:03.388Z,1.90
2023-07-21T13:09:30.461Z,2.30
2023-07-21T13:11:58.949Z,2.00
2023-07-21T13:14:26.155Z,2.50
2023-07-21T13:16:53.321Z,2.17
2023-07-21T13:19:20.441Z,2.93
2023-07-21T13:21:47.604Z,3.43
2023-07-21T13:24:14.664Z,5.07
2023-07-21T13:26:41.814Z,6.23
2023-07-21T13:29:10.281Z,7.03
2023-07-21T13:31:37.398Z,7.40
2023-07-21T13:34:04.584Z,7.20
2023-07-21T13:36:31.738Z,7.10
2023-07-21T13:38:58.785Z,5.97
2023-07-21T13:41:25.932Z,3.97
2023-07-21T13:43:53.046Z,3.33
2023-07-21T13:46:21.623Z,3.30
2023-07-21T13:48:48.879Z,3.40
2023-07-21T13:51:16.235Z,3.40
2023-07-21T13:53:43.325Z,2.90
2023-07-21T13:56:10.409Z,3.43
2023-07-21T13:58:37.536Z,3.30
2023-07-21T14:01:04.776Z,2.80
2023-07-21T14:03:33.236Z,3.10
2023-07-21T14:06:00.393Z,3.00
2023-07-21T14:08:27.496Z,2.80
2023-07-21T14:10:54.627Z,3.00
2023-07-21T14:13:21.750Z,3.33
2023-07-21T14:15:48.876Z,3.90
2023-07-21T14:18:16.049Z,3.27
2023-07-21T14:20:44.828Z,3.17
2023-07-21T14:23:11.999Z,2.93
2023-07-21T14:25:39.216Z,3.27
2023-07-21T14:28:06.385Z,3.30
2023-07-21T14:30:33.621Z,2.90
2023-07-21T14:33:00.737Z,2.43
2023-07-21T14:35:27.901Z,2.40
2023-07-21T14:37:56.293Z,2.80
2023-07-21T14:40:23.472Z,3.30
2023-07-21T14:42:50.583Z,2.13
2023-07-21T14:45:17.722Z,2.53
2023-07-21T14:47:45.039Z,2.03
2023-07-21T14:50:12.348Z,2.27
2023-07-21T14:52:39.644Z,2.00
2023-07-21T14:55:08.634Z,2.63
2023-07-21T14:57:35.776Z,1.97
2023-07-21T15:00:02.942Z,2.10
2023-07-21T15:02:30.223Z,2.00
2023-07-21T15:04:57.480Z,2.57
2023-07-21T15:07:24.768Z,2.33
2023-07-21T15:09:51.958Z,2.60
2023-07-21T15:12:21.735Z,2.37
2023-07-21T15:14:49.088Z,2.63
2023-07-21T15:17:16.256Z,2.63
2023-07-21T15:19:43.516Z,2.27
2023-07-21T15:22:10.718Z,2.17
2023-07-21T15:24:37.937Z,2.63
2023-07-21T15:27:05.188Z,2.60
2023-07-21T15:29:33.662Z,2.63
2023-07-21T15:32:00.917Z,2.60
2023-07-21T15:34:28.198Z,2.10
2023-07-21T15:36:55.380Z,2.20
2023-07-21T15:39:22.629Z,1.90
2023-07-21T15:41:49.880Z,2.20
2023-07-21T15:44:17.092Z,2.03
2023-07-21T15:46:45.652Z,1.93
2023-07-21T15:49:12.880Z,2.33
2023-07-21T15:51:40.023Z,2.33
2023-07-21T15:54:16.154Z,2.30
2023-07-21T15:56:44.954Z,2.50
2023-07-21T15:59:12.067Z,2.40
2023-07-21T16:01:39.283Z,3.77
2023-07-21T16:04:07.935Z,3.90
2023-07-21T16:06:35.101Z,3.77
2023-07-21T16:09:02.247Z,5.47
2023-07-21T16:11:29.483Z,5.00
2023-07-21T16:13:56.652Z,5.57
2023-07-21T16:16:23.808Z,5.40
2023-07-21T16:18:50.977Z,4.93
2023-07-21T16:21:19.549Z,6.97
2023-07-21T16:23:46.787Z,5.90
2023-07-21T16:26:13.957Z,6.90
2023-07-21T16:28:41.220Z,5.50
2023-07-21T16:31:08.444Z,6.33
2023-07-21T16:33:35.528Z,5.80
2023-07-21T16:36:03.225Z,5.40
2023-07-21T16:38:31.763Z,5.97
2023-07-21T16:41:01.412Z,6.40
2023-07-21T16:43:28.498Z,6.07
2023-07-21T16:45:55.711Z,7.40
2023-07-21T16:48:22.913Z,6.93
2023-07-21T16:50:50.170Z,6.43
2023-07-21T16:53:17.295Z,6.20
2023-07-21T16:55:45.843Z,7.03
2023-07-21T16:58:12.928Z,6.30
2023-07-21T17:00:40.698Z,7.10
2023-07-21T17:03:07.933Z,6.23
2023-07-21T17:05:35.236Z,5.93
2023-07-21T17:08:02.425Z,5.93
2023-07-21T17:10:30.222Z,5.20
2023-07-21T17:12:58.694Z,5.20
2023-07-21T17:15:25.870Z,4.80
2023-07-21T17:17:53.139Z,5.90
2023-07-21T17:20:20.350Z,4.50
2023-07-21T17:22:48.714Z,6.03
2023-07-21T17:25:16.197Z,5.20
2023-07-21T17:27:43.355Z,5.70
2023-07-21T17:30:12.406Z,5.30
2023-07-21T17:32:39.519Z,4.73
2023-07-21T17:35:07.168Z,4.90
2023-07-21T17:37:34.335Z,4.90
2023-07-21T17:40:01.553Z,4.50
2023-07-21T17:42:28.797Z,4.50
2023-07-21T17:44:55.957Z,5.50
2023-07-21T17:47:24.502Z,3.97
2023-07-21T17:49:51.730Z,4.20
2023-07-21T17:52:18.820Z,5.03
2023-07-21T17:54:45.971Z,4.63
2023-07-21T17:57:13.370Z,4.43
2023-07-21T17:59:40.517Z,4.80
2023-07-21T18:02:08.067Z,4.53
2023-07-21T18:04:36.609Z,4.23
2023-07-21T18:07:04.004Z,4.83
2023-07-21T18:09:31.430Z,5.57
2023-07-21T18:11:58.497Z,5.07
2023-07-21T18:14:25.637Z,4.53
2023-07-21T18:16:52.748Z,5.70
2023-07-21T18:19:19.960Z,5.33
2023-07-21T18:21:48.448Z,5.70
2023-07-21T18:24:15.657Z,5.17
2023-07-21T18:26:42.879Z,5.77
2023-07-21T18:29:09.989Z,5.37
2023-07-21T18:31:37.486Z,6.80
2023-07-21T18:34:04.624Z,4.60
2023-07-21T18:36:31.790Z,4.40
2023-07-21T18:39:00.264Z,5.20
2023-07-21T18:41:28.148Z,5.40
2023-07-21T18:43:55.675Z,4.93
2023-07-21T18:46:22.824Z,3.87
2023-07-21T18:48:49.994Z,4.00
2023-07-21T18:51:17.141Z,4.23
2023-07-21T18:53:44.365Z,5.97
2023-07-21T18:56:13.255Z,4.87
2023-07-21T18:58:40.439Z,5.20
2023-07-21T19:01:07.651Z,4.00
2023-07-21T19:03:34.875Z,4.73
2023-07-21T19:06:01.995Z,4.60
2023-07-21T19:08:29.114Z,4.67
2023-07-21T19:10:56.238Z,5.27
2023-07-21T19:13:24.731Z,4.60
2023-07-21T19:15:51.822Z,4.80
2023-07-21T19:18:19.009Z,4.63
2023-07-21T19:20:46.145Z,4.90
2023-07-21T19:23:13.363Z,5.17
2023-07-21T19:25:40.489Z,4.67
2023-07-21T19:28:07.610Z,4.47
2023-07-21T19:30:39.785Z,3.60
2023-07-21T19:33:07.104Z,4.57
2023-07-21T19:35:36.506Z,4.30
2023-07-21T19:38:03.647Z,4.83
2023-07-21T19:40:30.817Z,5.23
2023-07-21T19:42:58.060Z,4.80
2023-07-21T19:45:25.283Z,5.67
2023-07-21T19:47:53.896Z,5.40
2023-07-21T19:50:21.088Z,4.63
2023-07-21T19:52:50.252Z,5.20
2023-07-21T19:55:17.644Z,4.70
2023-07-21T19:57:44.793Z,4.63
2023-07-21T20:00:12.471Z,4.77
2023-07-21T20:02:39.665Z,5.20
2023-07-21T20:05:09.079Z,4.77
2023-07-21T20:07:36.274Z,5.90
2023-07-21T20:10:03.499Z,4.93
2023-07-21T20:12:30.692Z,5.13
2023-07-21T20:14:57.840Z,5.30
2023-07-21T20:17:24.988Z,5.73
2023-07-21T20:19:52.173Z,4.50
2023-07-21T20:22:20.708Z,4.80
2023-07-21T20:24:47.920Z,5.70
2023-07-21T20:27:15.082Z,5.00
2023-07-21T20:29:42.245Z,4.43
2023-07-21T20:32:09.837Z,4.77
2023-07-21T20:34:37.089Z,5.33
2023-07-21T20:37:04.631Z,4.70
2023-07-21T20:39:33.887Z,5.40
2023-07-21T20:42:01.150Z,4.97
2023-07-21T20:44:28.325Z,4.90
2023-07-21T20:46:55.549Z,4.93
2023-07-21T20:49:22.669Z,4.97
2023-07-21T20:51:49.794Z,5.07
2023-07-21T20:54:16.929Z,5.87
2023-07-21T20:56:45.423Z,5.07
2023-07-21T20:59:12.580Z,5.00
2023-07-21T21:01:39.771Z,5.77
2023-07-21T21:04:07.005Z,5.33
2023-07-21T21:06:34.206Z,5.07
2023-07-21T21:09:01.355Z,4.67
2023-07-21T21:11:28.447Z,4.90
2023-07-21T21:13:57.043Z,5.83
2023-07-21T21:16:24.272Z,5.57
2023-07-21T21:18:51.637Z,5.57
2023-07-21T21:21:18.760Z,4.63
2023-07-21T21:23:45.856Z,4.67
2023-07-21T21:26:12.996Z,5.80
2023-07-21T21:28:40.081Z,5.87
2023-07-21T21:31:08.634Z,5.53
2023-07-21T21:33:35.758Z,5.80
2023-07-21T21:36:02.941Z,5.20
2023-07-21T21:38:30.050Z,6.30
2023-07-21T21:40:57.670Z,6.33
2023-07-21T21:43:25.174Z,5.90
2023-07-21T21:45:52.423Z,6.43
2023-07-21T21:48:21.004Z,5.10
2023-07-21T21:50:48.267Z,6.30
2023-07-21T21:53:15.391Z,5.47
2023-07-21T21:55:42.597Z,5.40
2023-07-21T21:58:09.735Z,5.03
2023-07-21T22:00:36.858Z,5.60
2023-07-21T22:03:04.030Z,6.07
2023-07-21T22:05:32.624Z,6.67
2023-07-21T22:07:59.722Z,6.53
2023-07-21T22:10:26.864Z,7.13
2023-07-21T22:12:53.960Z,6.37
2023-07-21T22:15:21.047Z,6.00
2023-07-21T22:17:48.221Z,5.57
2023-07-21T22:20:15.531Z,5.97
2023-07-21T22:22:44.078Z,5.97
2023-07-21T22:25:11.178Z,5.10
2023-07-21T22:27:40.944Z,6.33
2023-07-21T22:30:08.889Z,6.50
2023-07-21T22:32:36.046Z,7.10
2023-07-21T22:35:03.289Z,7.57
2023-07-21T22:37:30.448Z,7.17
2023-07-21T22:39:58.915Z,6.50
2023-07-21T22:42:26.023Z,6.60
2023-07-21T22:44:53.163Z,6.20
2023-07-21T22:47:20.264Z,5.90
2023-07-21T22:49:47.396Z,6.13
2023-07-21T22:52:14.513Z,5.43
2023-07-21T22:54:41.644Z,6.83
2023-07-21T22:57:10.129Z,6.77
2023-07-21T22:59:37.255Z,5.20
2023-07-21T23:02:04.669Z,5.40
2023-07-21T23:04:31.865Z,6.50
2023-07-21T23:06:59.026Z,5.70
2023-07-21T23:09:26.168Z,5.60
2023-07-21T23:11:53.382Z,5.87
2023-07-21T23:14:21.838Z,5.70
2023-07-21T23:16:49.067Z,5.37
2023-07-21T23:19:16.236Z,7.43
2023-07-21T23:21:43.363Z,6.57
2023-07-21T23:24:10.562Z,6.17
2023-07-21T23:26:37.776Z,6.77
2023-07-21T23:29:04.959Z,6.53
2023-07-21T23:31:33.514Z,6.40
2023-07-21T23:34:01.014Z,6.80
2023-07-21T23:36:28.699Z,7.00
2023-07-21T23:38:56.397Z,6.57
2023-07-21T23:41:23.565Z,6.40
2023-07-21T23:43:50.804Z,6.53
2023-07-21T23:46:17.989Z,6.20
2023-07-21T23:48:46.521Z,6.47
2023-07-21T23:51:13.607Z,7.80
2023-07-21T23:53:40.736Z,6.87
2023-07-21T23:56:07.966Z,7.10
2023-07-21T23:58:35.062Z,6.90
